sensor_id;sensor_type;location;lat;lon;timestamp;P1;durP1;ratioP1;P2;durP2;ratioP2
25301;SDS011;13243;50.888;4.724;2023-01-30T00:04:41;43.72;;;19.45;;
25301;SDS011;13243;50.888;4.724;2023-01-30T00:09:43;44.33;;;19.83;;
25301;SDS011;13243;50.888;4.724;2023-01-30T00:14:45;44.63;;;18.98;;
25301;SDS011;13243;50.888;4.724;2023-01-30T00:19:47;52.63;;;22.23;;
25301;SDS011;13243;50.888;4.724;2023-01-30T00:24:49;45.35;;;20.15;;
25301;SDS011;13243;50.888;4.724;2023-01-30T00:29:51;40.60;;;20.33;;
25301;SDS011;13243;50.888;4.724;2023-01-30T00:35:02;48.42;;;21.35;;
25301;SDS011;13243;50.888;4.724;2023-01-30T00:40:05;61.15;;;21.75;;
25301;SDS011;13243;50.888;4.724;2023-01-30T00:45:09;44.22;;;20.00;;
25301;SDS011;13243;50.888;4.724;2023-01-30T00:50:30;46.88;;;19.80;;
25301;SDS011;13243;50.888;4.724;2023-01-30T00:55:42;36.17;;;17.60;;
25301;SDS011;13243;50.888;4.724;2023-01-30T01:00:46;39.45;;;18.15;;
25301;SDS011;13243;50.888;4.724;2023-01-30T01:05:48;36.65;;;17.08;;
25301;SDS011;13243;50.888;4.724;2023-01-30T01:10:49;40.85;;;17.63;;
25301;SDS011;13243;50.888;4.724;2023-01-30T01:15:51;40.42;;;17.33;;
25301;SDS011;13243;50.888;4.724;2023-01-30T01:20:53;37.33;;;16.75;;
25301;SDS011;13243;50.888;4.724;2023-01-30T01:25:55;32.63;;;15.43;;
25301;SDS011;13243;50.888;4.724;2023-01-30T01:31:06;30.40;;;14.05;;
25301;SDS011;13243;50.888;4.724;2023-01-30T01:36:09;35.15;;;16.27;;
25301;SDS011;13243;50.888;4.724;2023-01-30T01:41:20;30.63;;;11.82;;
25301;SDS011;13243;50.888;4.724;2023-01-30T01:46:22;26.92;;;14.20;;
25301;SDS011;13243;50.888;4.724;2023-01-30T01:56:33;31.95;;;14.05;;
25301;SDS011;13243;50.888;4.724;2023-01-30T02:01:37;30.45;;;14.82;;
25301;SDS011;13243;50.888;4.724;2023-01-30T02:06:39;32.67;;;14.93;;
25301;SDS011;13243;50.888;4.724;2023-01-30T02:11:46;36.65;;;15.27;;
25301;SDS011;13243;50.888;4.724;2023-01-30T02:22:13;24.05;;;12.77;;
25301;SDS011;13243;50.888;4.724;2023-01-30T02:49:12;28.70;;;13.88;;
25301;SDS011;13243;50.888;4.724;2023-01-30T02:54:20;21.08;;;10.43;;
25301;SDS011;13243;50.888;4.724;2023-01-30T02:59:27;33.70;;;14.32;;
25301;SDS011;13243;50.888;4.724;2023-01-30T03:05:12;32.95;;;13.90;;
25301;SDS011;13243;50.888;4.724;2023-01-30T03:10:28;32.08;;;15.13;;
25301;SDS011;13243;50.888;4.724;2023-01-30T03:15:34;28.92;;;14.10;;
25301;SDS011;13243;50.888;4.724;2023-01-30T03:20:42;29.23;;;12.10;;
25301;SDS011;13243;50.888;4.724;2023-01-30T03:25:44;30.60;;;13.13;;
25301;SDS011;13243;50.888;4.724;2023-01-30T03:30:47;28.50;;;12.55;;
25301;SDS011;13243;50.888;4.724;2023-01-30T03:35:50;34.22;;;13.57;;
25301;SDS011;13243;50.888;4.724;2023-01-30T03:40:52;23.10;;;12.80;;
25301;SDS011;13243;50.888;4.724;2023-01-30T03:45:54;32.90;;;12.35;;
25301;SDS011;13243;50.888;4.724;2023-01-30T03:50:56;24.92;;;12.30;;
25301;SDS011;13243;50.888;4.724;2023-01-30T03:55:58;23.73;;;11.82;;
25301;SDS011;13243;50.888;4.724;2023-01-30T04:00:59;33.67;;;12.10;;
25301;SDS011;13243;50.888;4.724;2023-01-30T04:06:01;27.42;;;11.23;;
25301;SDS011;13243;50.888;4.724;2023-01-30T04:11:03;25.70;;;11.40;;
25301;SDS011;13243;50.888;4.724;2023-01-30T04:21:21;25.35;;;12.02;;
25301;SDS011;13243;50.888;4.724;2023-01-30T04:26:23;24.63;;;11.57;;
25301;SDS011;13243;50.888;4.724;2023-01-30T04:31:25;36.75;;;12.60;;
25301;SDS011;13243;50.888;4.724;2023-01-30T04:36:26;28.75;;;12.13;;
25301;SDS011;13243;50.888;4.724;2023-01-30T04:41:31;23.17;;;11.82;;
25301;SDS011;13243;50.888;4.724;2023-01-30T04:46:33;29.73;;;12.60;;
25301;SDS011;13243;50.888;4.724;2023-01-30T04:51:35;25.60;;;12.13;;
25301;SDS011;13243;50.888;4.724;2023-01-30T04:56:36;25.63;;;11.82;;
25301;SDS011;13243;50.888;4.724;2023-01-30T05:01:39;24.05;;;11.10;;
25301;SDS011;13243;50.888;4.724;2023-01-30T05:06:41;20.60;;;10.43;;
25301;SDS011;13243;50.888;4.724;2023-01-30T05:11:43;25.33;;;10.82;;
25301;SDS011;13243;50.888;4.724;2023-01-30T05:16:44;18.25;;;9.73;;
25301;SDS011;13243;50.888;4.724;2023-01-30T05:21:46;23.10;;;10.98;;
25301;SDS011;13243;50.888;4.724;2023-01-30T05:26:48;19.98;;;10.00;;
25301;SDS011;13243;50.888;4.724;2023-01-30T05:31:50;24.50;;;9.73;;
25301;SDS011;13243;50.888;4.724;2023-01-30T05:36:52;20.08;;;9.85;;
25301;SDS011;13243;50.888;4.724;2023-01-30T05:41:54;22.08;;;10.38;;
25301;SDS011;13243;50.888;4.724;2023-01-30T05:46:56;21.23;;;10.75;;
25301;SDS011;13243;50.888;4.724;2023-01-30T05:51:58;20.17;;;9.95;;
25301;SDS011;13243;50.888;4.724;2023-01-30T05:57:00;21.27;;;9.70;;
25301;SDS011;13243;50.888;4.724;2023-01-30T06:02:02;21.88;;;10.05;;
25301;SDS011;13243;50.888;4.724;2023-01-30T06:07:04;22.67;;;11.05;;
25301;SDS011;13243;50.888;4.724;2023-01-30T06:12:06;25.02;;;10.77;;
25301;SDS011;13243;50.888;4.724;2023-01-30T06:17:08;18.70;;;10.20;;
25301;SDS011;13243;50.888;4.724;2023-01-30T06:22:09;26.52;;;10.18;;
25301;SDS011;13243;50.888;4.724;2023-01-30T06:27:11;21.23;;;9.80;;
25301;SDS011;13243;50.888;4.724;2023-01-30T06:32:14;23.15;;;10.13;;
25301;SDS011;13243;50.888;4.724;2023-01-30T06:37:16;26.52;;;10.55;;
25301;SDS011;13243;50.888;4.724;2023-01-30T06:42:18;26.25;;;10.45;;
25301;SDS011;13243;50.888;4.724;2023-01-30T06:47:20;17.90;;;10.18;;
25301;SDS011;13243;50.888;4.724;2023-01-30T06:52:21;18.98;;;8.98;;
25301;SDS011;13243;50.888;4.724;2023-01-30T06:57:23;23.52;;;9.77;;
25301;SDS011;13243;50.888;4.724;2023-01-30T07:02:26;19.33;;;8.35;;
25301;SDS011;13243;50.888;4.724;2023-01-30T07:07:31;23.88;;;9.40;;
25301;SDS011;13243;50.888;4.724;2023-01-30T07:12:33;15.13;;;7.63;;
25301;SDS011;13243;50.888;4.724;2023-01-30T07:17:35;19.08;;;8.10;;
25301;SDS011;13243;50.888;4.724;2023-01-30T07:22:37;22.98;;;8.80;;
25301;SDS011;13243;50.888;4.724;2023-01-30T07:27:39;21.35;;;8.30;;
25301;SDS011;13243;50.888;4.724;2023-01-30T07:32:42;20.05;;;8.18;;
25301;SDS011;13243;50.888;4.724;2023-01-30T07:37:45;17.63;;;7.60;;
25301;SDS011;13243;50.888;4.724;2023-01-30T07:47:58;19.65;;;7.53;;
25301;SDS011;13243;50.888;4.724;2023-01-30T07:53:04;18.83;;;7.28;;
25301;SDS011;13243;50.888;4.724;2023-01-30T07:58:07;11.75;;;5.95;;
25301;SDS011;13243;50.888;4.724;2023-01-30T08:03:15;18.17;;;5.35;;
25301;SDS011;13243;50.888;4.724;2023-01-30T08:08:18;22.20;;;5.55;;
25301;SDS011;13243;50.888;4.724;2023-01-30T08:13:20;18.70;;;6.43;;
25301;SDS011;13243;50.888;4.724;2023-01-30T08:18:22;14.48;;;5.13;;
25301;SDS011;13243;50.888;4.724;2023-01-30T08:23:24;22.40;;;5.68;;
25301;SDS011;13243;50.888;4.724;2023-01-30T08:28:26;14.23;;;5.60;;
25301;SDS011;13243;50.888;4.724;2023-01-30T08:33:28;19.65;;;5.00;;
25301;SDS011;13243;50.888;4.724;2023-01-30T08:38:30;16.55;;;5.57;;
25301;SDS011;13243;50.888;4.724;2023-01-30T08:43:32;14.65;;;4.25;;
25301;SDS011;13243;50.888;4.724;2023-01-30T08:48:34;13.45;;;4.68;;
25301;SDS011;13243;50.888;4.724;2023-01-30T08:53:50;15.73;;;4.68;;
25301;SDS011;13243;50.888;4.724;2023-01-30T08:58:52;21.23;;;3.70;;
25301;SDS011;13243;50.888;4.724;2023-01-30T09:03:54;18.45;;;3.35;;
25301;SDS011;13243;50.888;4.724;2023-01-30T09:08:56;11.18;;;2.88;;
25301;SDS011;13243;50.888;4.724;2023-01-30T09:13:59;16.73;;;2.90;;
25301;SDS011;13243;50.888;4.724;2023-01-30T09:19:01;25.85;;;3.00;;
25301;SDS011;13243;50.888;4.724;2023-01-30T09:24:03;11.32;;;2.38;;
25301;SDS011;13243;50.888;4.724;2023-01-30T09:29:05;10.35;;;2.78;;
25301;SDS011;13243;50.888;4.724;2023-01-30T09:34:07;16.90;;;2.53;;
25301;SDS011;13243;50.888;4.724;2023-01-30T09:39:09;14.30;;;3.13;;
25301;SDS011;13243;50.888;4.724;2023-01-30T09:45:14;5.72;;;1.92;;
25301;SDS011;13243;50.888;4.724;2023-01-30T09:55:19;11.63;;;2.17;;
25301;SDS011;13243;50.888;4.724;2023-01-30T10:00:29;16.63;;;2.20;;
25301;SDS011;13243;50.888;4.724;2023-01-30T10:05:47;11.88;;;2.25;;
25301;SDS011;13243;50.888;4.724;2023-01-30T10:16:18;11.48;;;1.90;;
25301;SDS011;13243;50.888;4.724;2023-01-30T10:21:46;15.52;;;2.42;;
25301;SDS011;13243;50.888;4.724;2023-01-30T10:26:56;12.80;;;1.98;;
25301;SDS011;13243;50.888;4.724;2023-01-30T10:32:23;15.73;;;3.33;;
25301;SDS011;13243;50.888;4.724;2023-01-30T10:37:33;11.45;;;2.58;;
25301;SDS011;13243;50.888;4.724;2023-01-30T10:42:47;9.73;;;1.58;;
25301;SDS011;13243;50.888;4.724;2023-01-30T10:48:21;19.40;;;2.42;;
25301;SDS011;13243;50.888;4.724;2023-01-30T11:04:29;15.27;;;2.33;;
25301;SDS011;13243;50.888;4.724;2023-01-30T11:14:48;11.27;;;2.83;;
25301;SDS011;13243;50.888;4.724;2023-01-30T11:19:53;15.63;;;3.17;;
25301;SDS011;13243;50.888;4.724;2023-01-30T11:25:05;12.15;;;2.35;;
25301;SDS011;13243;50.888;4.724;2023-01-30T11:30:16;13.77;;;3.28;;
25301;SDS011;13243;50.888;4.724;2023-01-30T11:35:27;15.82;;;2.72;;
25301;SDS011;13243;50.888;4.724;2023-01-30T11:40:31;11.55;;;2.65;;
25301;SDS011;13243;50.888;4.724;2023-01-30T11:45:45;14.52;;;2.97;;
25301;SDS011;13243;50.888;4.724;2023-01-30T11:50:53;15.63;;;2.55;;
25301;SDS011;13243;50.888;4.724;2023-01-30T11:55:59;15.05;;;1.98;;
25301;SDS011;13243;50.888;4.724;2023-01-30T12:01:09;18.20;;;2.97;;
25301;SDS011;13243;50.888;4.724;2023-01-30T12:06:19;14.77;;;2.95;;
25301;SDS011;13243;50.888;4.724;2023-01-30T12:11:27;8.30;;;2.28;;
25301;SDS011;13243;50.888;4.724;2023-01-30T12:16:40;11.02;;;2.33;;
25301;SDS011;13243;50.888;4.724;2023-01-30T12:22:05;17.98;;;3.42;;
25301;SDS011;13243;50.888;4.724;2023-01-30T12:32:45;20.50;;;2.80;;
25301;SDS011;13243;50.888;4.724;2023-01-30T12:43:28;12.40;;;2.42;;
25301;SDS011;13243;50.888;4.724;2023-01-30T12:59:38;22.27;;;2.25;;
25301;SDS011;13243;50.888;4.724;2023-01-30T13:10:30;14.15;;;2.05;;
25301;SDS011;13243;50.888;4.724;2023-01-30T13:15:47;18.25;;;2.70;;
25301;SDS011;13243;50.888;4.724;2023-01-30T13:26:29;15.20;;;2.13;;
25301;SDS011;13243;50.888;4.724;2023-01-30T13:31:36;11.07;;;2.05;;
25301;SDS011;13243;50.888;4.724;2023-01-30T13:36:45;16.70;;;2.10;;
25301;SDS011;13243;50.888;4.724;2023-01-30T13:41:55;15.57;;;3.53;;
25301;SDS011;13243;50.888;4.724;2023-01-30T13:47:04;9.73;;;2.60;;
25301;SDS011;13243;50.888;4.724;2023-01-30T13:57:52;16.08;;;2.50;;
25301;SDS011;13243;50.888;4.724;2023-01-30T14:08:09;11.57;;;2.67;;
25301;SDS011;13243;50.888;4.724;2023-01-30T14:13:13;16.35;;;2.40;;
25301;SDS011;13243;50.888;4.724;2023-01-30T14:23:29;16.13;;;3.05;;
25301;SDS011;13243;50.888;4.724;2023-01-30T14:28:42;14.10;;;2.67;;
25301;SDS011;13243;50.888;4.724;2023-01-30T14:33:47;15.88;;;3.45;;
25301;SDS011;13243;50.888;4.724;2023-01-30T14:39:32;21.08;;;3.35;;
25301;SDS011;13243;50.888;4.724;2023-01-30T14:44:54;10.20;;;2.70;;
25301;SDS011;13243;50.888;4.724;2023-01-30T14:50:12;17.25;;;2.58;;
25301;SDS011;13243;50.888;4.724;2023-01-30T14:55:23;24.65;;;5.38;;
25301;SDS011;13243;50.888;4.724;2023-01-30T15:00:30;13.63;;;2.47;;
25301;SDS011;13243;50.888;4.724;2023-01-30T15:05:36;18.90;;;4.07;;
25301;SDS011;13243;50.888;4.724;2023-01-30T15:26:40;16.52;;;3.53;;
25301;SDS011;13243;50.888;4.724;2023-01-30T15:32:16;19.25;;;2.38;;
25301;SDS011;13243;50.888;4.724;2023-01-30T15:37:29;15.00;;;3.55;;
25301;SDS011;13243;50.888;4.724;2023-01-30T15:42:37;13.68;;;2.47;;
25301;SDS011;13243;50.888;4.724;2023-01-30T15:53:13;10.95;;;2.65;;
25301;SDS011;13243;50.888;4.724;2023-01-30T15:58:16;16.10;;;2.28;;
25301;SDS011;13243;50.888;4.724;2023-01-30T16:03:22;20.25;;;2.25;;
25301;SDS011;13243;50.888;4.724;2023-01-30T16:08:28;16.15;;;2.55;;
25301;SDS011;13243;50.888;4.724;2023-01-30T16:13:31;15.02;;;3.03;;
25301;SDS011;13243;50.888;4.724;2023-01-30T16:23:50;15.38;;;2.65;;
25301;SDS011;13243;50.888;4.724;2023-01-30T16:28:59;14.98;;;2.28;;
25301;SDS011;13243;50.888;4.724;2023-01-30T16:34:33;22.70;;;3.70;;
25301;SDS011;13243;50.888;4.724;2023-01-30T16:39:37;24.77;;;3.75;;
25301;SDS011;13243;50.888;4.724;2023-01-30T16:44:39;24.60;;;4.97;;
25301;SDS011;13243;50.888;4.724;2023-01-30T16:49:42;17.23;;;3.17;;
25301;SDS011;13243;50.888;4.724;2023-01-30T16:54:54;20.70;;;2.72;;
25301;SDS011;13243;50.888;4.724;2023-01-30T16:59:57;15.63;;;2.72;;
25301;SDS011;13243;50.888;4.724;2023-01-30T17:15:42;15.05;;;3.33;;
25301;SDS011;13243;50.888;4.724;2023-01-30T17:20:44;16.17;;;2.83;;
25301;SDS011;13243;50.888;4.724;2023-01-30T17:25:51;13.93;;;3.20;;
25301;SDS011;13243;50.888;4.724;2023-01-30T17:30:53;18.00;;;2.65;;
25301;SDS011;13243;50.888;4.724;2023-01-30T17:35:56;19.45;;;4.50;;
25301;SDS011;13243;50.888;4.724;2023-01-30T17:41:01;11.48;;;2.50;;
25301;SDS011;13243;50.888;4.724;2023-01-30T17:46:04;12.95;;;3.40;;
25301;SDS011;13243;50.888;4.724;2023-01-30T17:51:06;19.38;;;3.20;;
25301;SDS011;13243;50.888;4.724;2023-01-30T17:56:12;15.75;;;3.05;;
25301;SDS011;13243;50.888;4.724;2023-01-30T18:01:18;5.67;;;1.40;;
25301;SDS011;13243;50.888;4.724;2023-01-30T18:06:20;16.67;;;3.03;;
25301;SDS011;13243;50.888;4.724;2023-01-30T18:11:21;16.58;;;3.10;;
25301;SDS011;13243;50.888;4.724;2023-01-30T18:16:25;29.02;;;3.92;;
25301;SDS011;13243;50.888;4.724;2023-01-30T18:21:31;17.48;;;2.90;;
25301;SDS011;13243;50.888;4.724;2023-01-30T18:26:34;21.52;;;3.83;;
25301;SDS011;13243;50.888;4.724;2023-01-30T18:31:37;20.75;;;3.63;;
25301;SDS011;13243;50.888;4.724;2023-01-30T18:36:40;18.30;;;3.28;;
25301;SDS011;13243;50.888;4.724;2023-01-30T18:41:45;12.27;;;2.50;;
25301;SDS011;13243;50.888;4.724;2023-01-30T18:46:48;8.93;;;2.65;;
25301;SDS011;13243;50.888;4.724;2023-01-30T18:51:50;15.77;;;3.22;;
25301;SDS011;13243;50.888;4.724;2023-01-30T18:56:52;22.13;;;3.47;;
25301;SDS011;13243;50.888;4.724;2023-01-30T19:01:54;21.35;;;3.45;;
25301;SDS011;13243;50.888;4.724;2023-01-30T19:06:56;13.43;;;2.60;;
25301;SDS011;13243;50.888;4.724;2023-01-30T19:11:57;16.55;;;2.25;;
25301;SDS011;13243;50.888;4.724;2023-01-30T19:17:18;10.65;;;1.77;;
25301;SDS011;13243;50.888;4.724;2023-01-30T19:22:21;16.77;;;3.42;;
25301;SDS011;13243;50.888;4.724;2023-01-30T19:27:25;14.23;;;2.80;;
25301;SDS011;13243;50.888;4.724;2023-01-30T19:32:26;14.45;;;2.63;;
25301;SDS011;13243;50.888;4.724;2023-01-30T19:37:30;18.88;;;2.80;;
25301;SDS011;13243;50.888;4.724;2023-01-30T19:42:31;19.95;;;3.50;;
25301;SDS011;13243;50.888;4.724;2023-01-30T19:47:34;11.55;;;3.28;;
25301;SDS011;13243;50.888;4.724;2023-01-30T19:52:36;21.20;;;3.40;;
25301;SDS011;13243;50.888;4.724;2023-01-30T19:57:38;11.32;;;2.78;;
25301;SDS011;13243;50.888;4.724;2023-01-30T20:02:40;12.38;;;3.15;;
25301;SDS011;13243;50.888;4.724;2023-01-30T20:07:42;12.43;;;2.72;;
25301;SDS011;13243;50.888;4.724;2023-01-30T20:12:45;17.17;;;3.15;;
25301;SDS011;13243;50.888;4.724;2023-01-30T20:17:46;21.35;;;4.15;;
25301;SDS011;13243;50.888;4.724;2023-01-30T20:22:49;16.48;;;3.95;;
25301;SDS011;13243;50.888;4.724;2023-01-30T20:27:51;19.27;;;2.75;;
25301;SDS011;13243;50.888;4.724;2023-01-30T20:32:53;13.93;;;3.13;;
25301;SDS011;13243;50.888;4.724;2023-01-30T20:37:55;27.85;;;5.40;;
25301;SDS011;13243;50.888;4.724;2023-01-30T20:42:57;15.82;;;2.85;;
25301;SDS011;13243;50.888;4.724;2023-01-30T20:47:59;13.10;;;3.70;;
25301;SDS011;13243;50.888;4.724;2023-01-30T20:53:01;22.27;;;3.75;;
25301;SDS011;13243;50.888;4.724;2023-01-30T20:58:04;17.42;;;3.13;;
25301;SDS011;13243;50.888;4.724;2023-01-30T21:03:06;17.10;;;3.65;;
25301;SDS011;13243;50.888;4.724;2023-01-30T21:08:08;15.02;;;4.75;;
25301;SDS011;13243;50.888;4.724;2023-01-30T21:13:10;11.90;;;3.60;;
25301;SDS011;13243;50.888;4.724;2023-01-30T21:18:14;19.10;;;4.65;;
25301;SDS011;13243;50.888;4.724;2023-01-30T21:23:16;17.27;;;5.38;;
25301;SDS011;13243;50.888;4.724;2023-01-30T21:28:18;24.70;;;6.82;;
25301;SDS011;13243;50.888;4.724;2023-01-30T21:33:20;23.70;;;5.93;;
25301;SDS011;13243;50.888;4.724;2023-01-30T21:38:22;24.67;;;6.40;;
25301;SDS011;13243;50.888;4.724;2023-01-30T21:43:45;23.02;;;6.00;;
25301;SDS011;13243;50.888;4.724;2023-01-30T21:48:48;28.02;;;5.68;;
25301;SDS011;13243;50.888;4.724;2023-01-30T21:53:53;24.50;;;6.60;;
25301;SDS011;13243;50.888;4.724;2023-01-30T21:58:59;25.25;;;7.47;;
25301;SDS011;13243;50.888;4.724;2023-01-30T22:04:03;36.13;;;6.78;;
25301;SDS011;13243;50.888;4.724;2023-01-30T22:09:07;28.55;;;5.82;;
25301;SDS011;13243;50.888;4.724;2023-01-30T22:14:09;26.25;;;6.45;;
25301;SDS011;13243;50.888;4.724;2023-01-30T22:19:14;37.88;;;7.32;;
25301;SDS011;13243;50.888;4.724;2023-01-30T22:24:17;17.80;;;5.57;;
25301;SDS011;13243;50.888;4.724;2023-01-30T22:29:19;28.08;;;6.38;;
25301;SDS011;13243;50.888;4.724;2023-01-30T22:34:21;31.40;;;7.10;;
25301;SDS011;13243;50.888;4.724;2023-01-30T22:39:23;20.50;;;6.82;;
25301;SDS011;13243;50.888;4.724;2023-01-30T22:44:25;37.55;;;6.65;;
25301;SDS011;13243;50.888;4.724;2023-01-30T22:49:27;32.30;;;6.25;;
25301;SDS011;13243;50.888;4.724;2023-01-30T22:54:29;23.77;;;5.07;;
25301;SDS011;13243;50.888;4.724;2023-01-30T22:59:31;28.40;;;6.13;;
25301;SDS011;13243;50.888;4.724;2023-01-30T23:04:33;29.92;;;6.43;;
25301;SDS011;13243;50.888;4.724;2023-01-30T23:09:34;27.05;;;5.45;;
25301;SDS011;13243;50.888;4.724;2023-01-30T23:14:37;24.15;;;5.63;;
25301;SDS011;13243;50.888;4.724;2023-01-30T23:19:39;30.25;;;6.00;;
25301;SDS011;13243;50.888;4.724;2023-01-30T23:24:41;26.80;;;5.60;;
25301;SDS011;13243;50.888;4.724;2023-01-30T23:29:43;22.95;;;5.28;;
25301;SDS011;13243;50.888;4.724;2023-01-30T23:34:45;19.48;;;4.88;;
25301;SDS011;13243;50.888;4.724;2023-01-30T23:39:47;20.50;;;6.00;;
25301;SDS011;13243;50.888;4.724;2023-01-30T23:44:49;34.40;;;5.82;;
25301;SDS011;13243;50.888;4.724;2023-01-30T23:49:51;18.23;;;6.28;;
25301;SDS011;13243;50.888;4.724;2023-01-30T23:54:53;16.38;;;5.85;;
25301;SDS011;13243;50.888;4.724;2023-01-30T23:59:55;24.42;;;6.60;;
